createdAt,value
2023-02-09T00:01:28.897Z,-3.19
2023-02-09T00:03:56.657Z,-3.18
2023-02-09T00:06:25.037Z,-3.27
2023-02-09T00:08:53.856Z,-3.41
2023-02-09T00:11:45.270Z,-3.57
2023-02-09T00:14:12.438Z,-3.63
2023-02-09T00:16:40.468Z,-3.63
2023-02-09T00:19:08.122Z,-3.60
2023-02-09T00:21:35.645Z,-3.27
2023-02-09T00:24:03.167Z,-3.21
2023-02-09T00:26:32.141Z,-3.59
2023-02-09T00:28:59.749Z,-3.31
2023-02-09T00:31:27.747Z,-3.25
2023-02-09T00:33:55.282Z,-3.15
2023-02-09T00:36:22.816Z,-3.13
2023-02-09T00:38:50.332Z,-3.29
2023-02-09T00:41:18.361Z,-3.08
2023-02-09T00:43:47.209Z,-3.21
2023-02-09T00:46:14.716Z,-3.23
2023-02-09T00:48:42.212Z,-3.18
2023-02-09T00:51:09.722Z,-3.02
2023-02-09T00:53:37.214Z,-2.98
2023-02-09T00:56:05.097Z,-2.81
2023-02-09T00:58:32.572Z,-2.76
2023-02-09T01:01:01.449Z,-2.91
2023-02-09T01:03:28.990Z,-2.97
2023-02-09T01:05:59.777Z,-2.89
2023-02-09T01:08:27.314Z,-2.74
2023-02-09T01:10:54.905Z,-2.72
2023-02-09T01:13:22.455Z,-2.71
2023-02-09T01:15:49.994Z,-2.70
2023-02-09T01:18:18.932Z,-2.76
2023-02-09T01:20:46.713Z,-2.73
2023-02-09T01:23:14.407Z,-2.57
2023-02-09T01:25:41.967Z,-2.68
2023-02-09T01:28:09.545Z,-2.69
2023-02-09T01:30:37.116Z,-2.81
2023-02-09T01:33:04.675Z,-2.84
2023-02-09T01:35:33.515Z,-2.91
2023-02-09T01:38:01.028Z,-2.89
2023-02-09T01:40:28.525Z,-2.84
2023-02-09T01:42:55.987Z,-2.97
2023-02-09T01:45:28.997Z,-3.03
2023-02-09T01:48:00.023Z,-3.03
2023-02-09T01:50:28.830Z,-2.75
2023-02-09T01:52:57.791Z,-2.67
2023-02-09T01:55:27.080Z,-2.77
2023-02-09T01:57:57.427Z,-2.80
2023-02-09T02:00:25.724Z,-2.91
2023-02-09T02:02:55.854Z,-2.78
2023-02-09T02:05:23.819Z,-2.85
2023-02-09T02:07:57.882Z,-3.31
2023-02-09T02:10:25.814Z,-3.56
2023-02-09T02:12:54.381Z,-3.70
2023-02-09T02:15:23.202Z,-3.68
2023-02-09T02:18:03.440Z,-3.66
2023-02-09T02:21:00.258Z,-3.33
2023-02-09T02:23:31.810Z,-3.43
2023-02-09T02:26:36.568Z,-3.46
2023-02-09T02:29:30.717Z,-3.71
2023-02-09T02:32:07.162Z,-4.04
2023-02-09T02:34:43.473Z,-3.96
2023-02-09T02:37:17.422Z,-3.94
2023-02-09T02:39:51.775Z,-4.06
2023-02-09T02:42:41.023Z,-3.98
2023-02-09T02:45:13.326Z,-3.80
2023-02-09T02:47:43.692Z,-3.39
2023-02-09T02:50:13.678Z,-3.59
2023-02-09T02:52:43.713Z,-4.08
2023-02-09T02:55:15.188Z,-4.18
2023-02-09T02:57:44.599Z,-3.98
2023-02-09T03:00:14.894Z,-3.95
2023-02-09T03:02:45.294Z,-4.13
2023-02-09T03:05:12.912Z,-3.83
2023-02-09T03:07:40.395Z,-3.88
2023-02-09T03:10:26.851Z,-3.91
2023-02-09T03:13:02.778Z,-4.10
2023-02-09T03:15:34.281Z,-3.89
2023-02-09T03:18:15.351Z,-3.92
2023-02-09T03:20:45.004Z,-3.82
2023-02-09T03:23:17.186Z,-3.92
2023-02-09T03:25:46.625Z,-4.08
2023-02-09T03:28:18.219Z,-3.98
2023-02-09T03:30:49.656Z,-4.10
2023-02-09T03:33:23.090Z,-3.93
2023-02-09T03:35:53.267Z,-3.89
2023-02-09T03:38:20.735Z,-4.40
2023-02-09T03:40:48.505Z,-4.49
2023-02-09T03:43:16.000Z,-4.30
2023-02-09T03:45:43.515Z,-4.18
2023-02-09T03:48:10.980Z,-4.32
2023-02-09T03:50:39.800Z,-3.83
2023-02-09T03:53:07.295Z,-4.18
2023-02-09T03:55:35.768Z,-4.47
2023-02-09T03:58:03.833Z,-4.29
2023-02-09T04:00:31.474Z,-3.91
2023-02-09T04:02:59.231Z,-3.82
2023-02-09T04:05:26.757Z,-3.68
2023-02-09T04:07:55.598Z,-3.39
2023-02-09T04:10:23.139Z,-3.31
2023-02-09T04:12:50.659Z,-3.28
2023-02-09T04:15:18.208Z,-3.41
2023-02-09T04:17:45.717Z,-3.74
2023-02-09T04:20:13.212Z,-3.86
2023-02-09T04:22:40.910Z,-4.06
2023-02-09T04:25:09.861Z,-3.88
2023-02-09T04:27:37.363Z,-3.82
2023-02-09T04:30:05.270Z,-3.89
2023-02-09T04:32:32.763Z,-4.26
2023-02-09T04:35:00.226Z,-4.46
2023-02-09T04:37:27.887Z,-4.52
2023-02-09T04:39:55.672Z,-4.67
2023-02-09T04:42:24.758Z,-4.72
2023-02-09T04:44:52.330Z,-4.47
2023-02-09T04:47:19.824Z,-4.28
2023-02-09T04:49:47.288Z,-4.71
2023-02-09T04:52:14.826Z,-4.71
2023-02-09T04:54:42.300Z,-4.88
2023-02-09T04:57:27.790Z,-4.61
2023-02-09T04:59:56.893Z,-5.09
2023-02-09T05:02:24.387Z,-5.07
2023-02-09T05:04:51.863Z,-4.70
2023-02-09T05:07:19.398Z,-5.05
2023-02-09T05:09:46.931Z,-5.03
2023-02-09T05:12:14.456Z,-4.97
2023-02-09T05:14:41.953Z,-4.99
2023-02-09T05:17:10.831Z,-4.80
2023-02-09T05:19:38.304Z,-5.18
2023-02-09T05:22:05.827Z,-5.20
2023-02-09T05:24:33.350Z,-5.46
2023-02-09T05:27:00.843Z,-5.30
2023-02-09T05:29:28.562Z,-5.33
2023-02-09T05:31:56.099Z,-5.13
2023-02-09T05:34:25.029Z,-4.96
2023-02-09T05:36:52.506Z,-5.12
2023-02-09T05:39:20.174Z,-5.42
2023-02-09T05:42:05.511Z,-5.38
2023-02-09T05:44:33.028Z,-5.26
2023-02-09T05:47:00.500Z,-5.20
2023-02-09T05:49:29.285Z,-5.06
2023-02-09T05:51:56.779Z,-5.31
2023-02-09T05:54:24.257Z,-5.48
2023-02-09T05:56:51.768Z,-5.55
2023-02-09T05:59:19.462Z,-5.52
2023-02-09T06:01:47.159Z,-5.40
2023-02-09T06:04:14.736Z,-5.13
2023-02-09T06:06:43.854Z,-5.27
2023-02-09T06:09:11.393Z,-5.46
2023-02-09T06:11:38.855Z,-5.40
2023-02-09T06:14:06.549Z,-5.61
2023-02-09T06:16:34.108Z,-5.68
2023-02-09T06:19:01.605Z,-5.54
2023-02-09T06:21:29.328Z,-5.08
2023-02-09T06:23:58.229Z,-5.07
2023-02-09T06:26:25.804Z,-5.16
2023-02-09T06:28:53.337Z,-5.17
2023-02-09T06:31:20.938Z,-5.34
2023-02-09T06:33:48.524Z,-5.30
2023-02-09T06:36:16.046Z,-5.25
2023-02-09T06:38:43.542Z,-5.18
2023-02-09T06:41:12.402Z,-5.20
2023-02-09T06:43:39.913Z,-5.35
2023-02-09T06:46:08.072Z,-5.00
2023-02-09T06:48:35.755Z,-4.96
2023-02-09T06:51:03.228Z,-5.31
2023-02-09T06:53:30.938Z,-5.47
2023-02-09T06:56:01.282Z,-5.03
2023-02-09T06:58:30.156Z,-5.27
2023-02-09T07:01:02.916Z,-5.11
2023-02-09T07:03:30.859Z,-5.14
2023-02-09T07:06:04.024Z,-5.25
2023-02-09T07:08:31.574Z,-5.25
2023-02-09T07:11:02.581Z,-5.34
2023-02-09T07:13:31.835Z,-5.47
2023-02-09T07:16:08.561Z,-5.43
2023-02-09T07:18:36.324Z,-5.61
2023-02-09T07:21:05.650Z,-5.74
2023-02-09T07:23:33.308Z,-5.72
2023-02-09T07:26:03.331Z,-5.52
2023-02-09T07:28:32.897Z,-5.45
2023-02-09T07:31:04.449Z,-5.48
2023-02-09T07:33:32.297Z,-5.46
2023-02-09T07:35:59.890Z,-5.31
2023-02-09T07:38:27.579Z,-5.29
2023-02-09T07:40:55.110Z,-5.37
2023-02-09T07:43:22.593Z,-5.35
2023-02-09T07:45:51.555Z,-5.23
2023-02-09T07:48:19.095Z,-5.14
2023-02-09T07:50:49.886Z,-5.17
2023-02-09T07:53:17.483Z,-5.15
2023-02-09T07:55:45.250Z,-5.08
2023-02-09T07:58:12.908Z,-4.83
2023-02-09T08:00:40.380Z,-4.74
2023-02-09T08:03:09.305Z,-4.74
2023-02-09T08:05:42.424Z,-4.73
2023-02-09T08:08:09.945Z,-4.70
2023-02-09T08:10:37.746Z,-4.75
2023-02-09T08:13:05.407Z,-4.55
2023-02-09T08:15:38.864Z,-4.39
2023-02-09T08:18:12.905Z,-4.40
2023-02-09T08:20:40.855Z,-4.46
2023-02-09T08:23:10.549Z,-4.37
2023-02-09T08:25:38.276Z,-4.32
2023-02-09T08:28:06.415Z,-4.17
2023-02-09T08:30:34.943Z,-4.17
2023-02-09T08:33:02.881Z,-4.03
2023-02-09T08:35:31.912Z,-3.94
2023-02-09T08:38:03.428Z,-3.86
2023-02-09T08:40:31.340Z,-3.69
2023-02-09T08:42:58.836Z,-3.61
2023-02-09T08:45:26.404Z,-3.53
2023-02-09T08:47:53.904Z,-3.45
2023-02-09T08:50:21.397Z,-3.42
2023-02-09T08:52:51.255Z,-3.19
2023-02-09T08:55:18.780Z,-2.99
2023-02-09T08:57:46.292Z,-2.97
2023-02-09T09:00:15.173Z,-2.68
2023-02-09T09:02:42.783Z,-2.72
2023-02-09T09:05:10.381Z,-2.76
2023-02-09T09:07:37.932Z,-2.72
2023-02-09T09:10:09.197Z,-2.69
2023-02-09T09:12:36.975Z,-2.58
2023-02-09T09:15:04.949Z,-2.51
2023-02-09T09:17:32.481Z,-2.39
2023-02-09T09:20:00.004Z,-2.31
2023-02-09T09:22:27.541Z,-2.24
2023-02-09T09:24:55.406Z,-2.20
2023-02-09T09:27:26.855Z,-2.11
2023-02-09T09:29:54.571Z,-2.02
2023-02-09T09:32:24.582Z,-1.99
2023-02-09T09:34:54.059Z,-1.93
2023-02-09T09:37:21.673Z,-1.77
2023-02-09T09:39:49.877Z,-1.70
2023-02-09T09:42:25.426Z,-1.71
2023-02-09T09:44:53.478Z,-1.64
2023-02-09T09:47:23.601Z,-1.66
2023-02-09T09:49:51.133Z,-1.56
2023-02-09T09:52:30.286Z,-1.45
2023-02-09T09:54:58.372Z,-1.43
2023-02-09T09:57:29.494Z,-1.35
2023-02-09T09:59:57.860Z,-1.21
2023-02-09T10:02:28.193Z,-1.16
2023-02-09T10:04:57.425Z,-1.15
2023-02-09T10:07:31.501Z,-1.01
2023-02-09T10:10:03.034Z,-0.95
2023-02-09T10:12:37.356Z,-0.95
2023-02-09T10:15:18.999Z,-0.78
2023-02-09T10:17:46.519Z,-0.72
2023-02-09T10:20:14.518Z,-0.57
2023-02-09T10:22:44.914Z,-0.50
2023-02-09T10:25:38.815Z,-0.48
2023-02-09T10:28:19.777Z,-0.40
2023-02-09T10:30:48.016Z,-0.34
2023-02-09T10:33:16.085Z,-0.33
2023-02-09T10:35:46.293Z,-0.33
2023-02-09T10:38:17.442Z,-0.22
2023-02-09T10:40:47.448Z,-0.17
2023-02-09T10:43:23.240Z,-0.13
2023-02-09T10:45:54.878Z,-0.10
2023-02-09T10:48:23.128Z,0.04
2023-02-09T10:50:52.923Z,0.14
2023-02-09T10:53:23.928Z,0.19
2023-02-09T10:55:52.343Z,0.24
2023-02-09T10:58:26.841Z,0.17
2023-02-09T11:01:00.902Z,0.21
2023-02-09T11:03:29.162Z,0.25
2023-02-09T11:06:02.776Z,0.33
2023-02-09T11:08:38.899Z,0.36
2023-02-09T11:11:09.045Z,0.50
2023-02-09T11:13:37.975Z,0.49
2023-02-09T11:16:21.567Z,0.45
2023-02-09T11:18:54.721Z,0.50
2023-02-09T11:21:30.435Z,0.54
2023-02-09T11:24:01.845Z,0.63
2023-02-09T11:26:37.374Z,0.80
2023-02-09T11:29:11.381Z,0.67
2023-02-09T11:31:48.135Z,0.58
2023-02-09T11:34:28.989Z,0.71
2023-02-09T11:37:02.011Z,0.66
2023-02-09T11:39:38.435Z,0.73
2023-02-09T11:42:25.824Z,0.82
2023-02-09T11:44:57.404Z,0.86
2023-02-09T11:47:29.498Z,0.99
2023-02-09T11:50:00.467Z,0.93
2023-02-09T11:52:31.334Z,0.93
2023-02-09T11:55:01.965Z,0.95
2023-02-09T11:57:34.743Z,1.10
2023-02-09T12:00:06.688Z,1.09
2023-02-09T12:02:46.092Z,0.99
2023-02-09T12:05:17.829Z,1.04
2023-02-09T12:07:56.158Z,1.04
2023-02-09T12:10:28.606Z,1.07
2023-02-09T12:13:00.009Z,1.25
2023-02-09T12:15:31.827Z,1.26
2023-02-09T12:18:02.107Z,1.37
2023-02-09T12:20:31.544Z,1.46
2023-02-09T12:23:02.108Z,1.45
2023-02-09T12:25:51.424Z,1.54
2023-02-09T12:28:40.330Z,1.66
2023-02-09T12:31:21.803Z,1.86
2023-02-09T12:34:10.719Z,1.87
2023-02-09T12:36:38.345Z,1.70
2023-02-09T12:39:24.185Z,1.80
2023-02-09T12:42:37.522Z,1.89
2023-02-09T12:45:31.652Z,1.89
2023-02-09T12:48:01.881Z,1.73
2023-02-09T12:50:36.760Z,1.76
2023-02-09T12:53:34.492Z,1.76
2023-02-09T12:56:04.795Z,1.90
2023-02-09T12:58:37.130Z,2.05
2023-02-09T13:01:04.804Z,2.12
2023-02-09T13:03:41.769Z,2.14
2023-02-09T13:06:24.059Z,2.09
2023-02-09T13:08:54.480Z,2.07
2023-02-09T13:11:30.542Z,2.05
2023-02-09T13:13:59.497Z,1.97
2023-02-09T13:16:38.264Z,2.11
2023-02-09T13:19:16.077Z,2.17
2023-02-09T13:21:53.214Z,2.17
2023-02-09T13:24:23.700Z,2.28
2023-02-09T13:26:52.752Z,2.36
2023-02-09T13:29:22.470Z,2.37
2023-02-09T13:31:58.048Z,2.32
2023-02-09T13:34:32.465Z,2.37
2023-02-09T13:37:07.683Z,2.29
2023-02-09T13:39:38.269Z,2.24
2023-02-09T13:42:19.767Z,2.30
2023-02-09T13:44:48.956Z,2.35
2023-02-09T13:47:17.106Z,2.55
2023-02-09T13:49:56.497Z,2.57
2023-02-09T13:52:26.617Z,2.66
2023-02-09T13:54:54.901Z,2.77
2023-02-09T13:57:31.975Z,2.75
2023-02-09T14:00:06.139Z,2.82
2023-02-09T14:02:36.123Z,2.72
2023-02-09T14:05:06.806Z,2.80
2023-02-09T14:07:36.194Z,2.78
2023-02-09T14:10:06.653Z,2.77
2023-02-09T14:12:55.581Z,2.96
2023-02-09T14:15:45.517Z,3.02
2023-02-09T14:18:41.484Z,3.04
2023-02-09T14:21:27.583Z,3.02
2023-02-09T14:24:21.027Z,3.09
2023-02-09T14:26:54.525Z,2.88
2023-02-09T14:29:27.680Z,3.01
2023-02-09T14:31:57.155Z,2.97
2023-02-09T14:34:29.487Z,3.00
2023-02-09T14:37:00.321Z,3.12
2023-02-09T14:39:31.073Z,3.08
2023-02-09T14:42:01.464Z,2.86
2023-02-09T14:44:29.632Z,2.88
2023-02-09T14:46:58.744Z,3.00
2023-02-09T14:49:26.993Z,3.02
2023-02-09T14:52:05.861Z,2.94
2023-02-09T14:54:35.736Z,3.05
2023-02-09T14:57:03.805Z,2.96
2023-02-09T14:59:31.764Z,3.10
2023-02-09T15:01:59.306Z,3.08
2023-02-09T15:04:26.989Z,3.00
2023-02-09T15:07:01.261Z,3.06
2023-02-09T15:09:35.245Z,2.98
2023-02-09T15:12:06.369Z,3.00
2023-02-09T15:14:36.882Z,3.03
2023-02-09T15:17:14.513Z,3.05
2023-02-09T15:19:42.487Z,2.72
2023-02-09T15:22:13.504Z,2.82
2023-02-09T15:24:42.689Z,2.92
2023-02-09T15:27:15.091Z,3.06
2023-02-09T15:29:42.635Z,2.99
2023-02-09T15:32:14.731Z,2.73
2023-02-09T15:34:42.430Z,2.64
2023-02-09T15:37:17.233Z,2.44
2023-02-09T15:39:46.212Z,2.43
2023-02-09T15:42:33.791Z,2.47
2023-02-09T15:45:35.705Z,2.62
2023-02-09T15:48:03.527Z,2.57
2023-02-09T15:50:32.829Z,2.64
2023-02-09T15:53:00.423Z,2.59
2023-02-09T15:55:29.564Z,2.60
2023-02-09T15:57:57.479Z,2.69
2023-02-09T16:00:27.049Z,2.45
2023-02-09T16:02:55.199Z,2.51
2023-02-09T16:05:23.736Z,2.47
2023-02-09T16:07:52.137Z,2.27
2023-02-09T16:10:22.981Z,2.24
2023-02-09T16:12:52.343Z,2.18
2023-02-09T16:15:21.809Z,2.15
2023-02-09T16:17:49.835Z,2.09
2023-02-09T16:20:17.800Z,1.94
2023-02-09T16:22:47.232Z,1.85
2023-02-09T16:25:19.991Z,1.86
2023-02-09T16:27:47.539Z,1.87
2023-02-09T16:30:21.956Z,1.78
2023-02-09T16:32:49.785Z,1.72
2023-02-09T16:35:18.227Z,1.66
2023-02-09T16:37:47.989Z,1.61
2023-02-09T16:40:23.329Z,1.43
2023-02-09T16:42:51.128Z,1.37
2023-02-09T16:45:23.328Z,1.33
2023-02-09T16:47:54.851Z,1.25
2023-02-09T16:50:24.908Z,1.17
2023-02-09T16:52:53.806Z,1.18
2023-02-09T16:55:25.120Z,1.08
2023-02-09T16:57:54.756Z,0.90
2023-02-09T17:00:25.369Z,0.94
2023-02-09T17:02:54.874Z,1.06
2023-02-09T17:05:25.854Z,1.11
2023-02-09T17:07:55.551Z,1.01
2023-02-09T17:10:25.740Z,0.84
2023-02-09T17:12:53.868Z,0.61
2023-02-09T17:15:30.728Z,0.47
2023-02-09T17:18:02.461Z,0.30
2023-02-09T17:20:34.466Z,0.24
2023-02-09T17:23:01.998Z,0.17
2023-02-09T17:25:29.592Z,0.25
2023-02-09T17:27:57.182Z,0.40
2023-02-09T17:30:26.065Z,0.53
2023-02-09T17:32:59.408Z,0.31
2023-02-09T17:35:52.930Z,0.21
2023-02-09T17:38:21.219Z,0.07
2023-02-09T17:40:48.794Z,0.07
2023-02-09T17:43:16.234Z,-0.04
2023-02-09T17:45:48.911Z,0.01
2023-02-09T17:48:17.358Z,0.35
2023-02-09T17:50:46.333Z,0.38
2023-02-09T17:53:16.249Z,0.17
2023-02-09T17:55:45.024Z,0.30
2023-02-09T17:58:14.249Z,0.41
2023-02-09T18:00:42.673Z,0.38
2023-02-09T18:03:16.793Z,0.18
2023-02-09T18:05:45.375Z,-0.05
2023-02-09T18:08:16.612Z,-0.27
2023-02-09T18:10:44.283Z,-0.33
2023-02-09T18:13:17.236Z,-0.57
2023-02-09T18:15:45.369Z,-0.55
2023-02-09T18:18:14.674Z,-0.40
2023-02-09T18:20:43.761Z,-0.64
2023-02-09T18:23:14.252Z,-0.60
2023-02-09T18:25:46.275Z,-0.27
2023-02-09T18:28:16.233Z,-0.38
2023-02-09T18:30:46.957Z,-0.53
2023-02-09T18:33:18.538Z,-0.47
2023-02-09T18:35:46.491Z,-0.57
2023-02-09T18:38:15.648Z,-0.57
2023-02-09T18:40:43.291Z,-0.72
2023-02-09T18:43:14.461Z,-0.70
2023-02-09T18:45:41.970Z,-0.56
2023-02-09T18:48:10.105Z,-0.45
2023-02-09T18:50:40.071Z,-0.47
2023-02-09T18:53:07.662Z,-0.54
2023-02-09T18:55:35.661Z,-0.54
2023-02-09T18:58:04.911Z,-0.56
2023-02-09T19:00:32.682Z,-0.65
2023-02-09T19:03:00.661Z,-0.69
2023-02-09T19:05:30.088Z,-0.59
2023-02-09T19:07:59.564Z,-0.53
2023-02-09T19:10:29.506Z,-0.53
2023-02-09T19:12:58.788Z,-0.49
2023-02-09T19:15:26.575Z,-0.50
2023-02-09T19:17:56.729Z,-0.62
2023-02-09T19:20:27.017Z,-0.79
2023-02-09T19:22:55.304Z,-0.76
2023-02-09T19:25:26.759Z,-0.61
2023-02-09T19:27:55.065Z,-0.71
2023-02-09T19:30:25.121Z,-0.71
2023-02-09T19:32:54.424Z,-0.83
2023-02-09T19:35:23.042Z,-0.96
2023-02-09T19:37:52.207Z,-0.84
2023-02-09T19:40:27.973Z,-0.72
2023-02-09T19:42:57.769Z,-0.70
2023-02-09T19:45:25.523Z,-0.75
2023-02-09T19:47:53.366Z,-0.82
2023-02-09T19:50:21.478Z,-0.88
2023-02-09T19:52:50.301Z,-1.25
2023-02-09T19:55:18.360Z,-1.25
2023-02-09T19:57:46.375Z,-1.29
2023-02-09T20:00:18.523Z,-1.44
2023-02-09T20:02:46.492Z,-1.39
2023-02-09T20:05:16.098Z,-1.30
2023-02-09T20:07:44.279Z,-1.32
2023-02-09T20:10:12.048Z,-1.35
2023-02-09T20:12:39.881Z,-1.42
2023-02-09T20:15:08.076Z,-1.43
2023-02-09T20:17:37.236Z,-1.48
2023-02-09T20:20:05.650Z,-1.71
2023-02-09T20:22:36.906Z,-1.92
2023-02-09T20:25:04.752Z,-1.84
2023-02-09T20:27:32.448Z,-1.74
2023-02-09T20:30:02.589Z,-1.60
2023-02-09T20:32:30.712Z,-1.57
2023-02-09T20:35:02.074Z,-1.36
2023-02-09T20:37:32.361Z,-1.42
2023-02-09T20:40:01.639Z,-1.45
2023-02-09T20:42:46.971Z,-1.67
2023-02-09T20:45:33.233Z,-1.76
2023-02-09T20:48:01.271Z,-1.92
2023-02-09T20:50:32.800Z,-1.94
2023-02-09T20:53:01.461Z,-1.92
2023-02-09T20:55:30.509Z,-1.99
2023-02-09T20:57:58.315Z,-2.17
2023-02-09T21:00:26.065Z,-2.21
2023-02-09T21:02:53.855Z,-2.19
2023-02-09T21:05:21.749Z,-2.12
2023-02-09T21:07:52.139Z,-2.13
2023-02-09T21:10:19.883Z,-1.90
2023-02-09T21:12:47.623Z,-1.91
2023-02-09T21:15:15.517Z,-1.97
2023-02-09T21:17:47.799Z,-2.18
2023-02-09T21:20:15.958Z,-2.14
2023-02-09T21:22:43.811Z,-1.94
2023-02-09T21:25:13.889Z,-2.12
2023-02-09T21:27:41.712Z,-2.31
2023-02-09T21:30:10.412Z,-2.25
2023-02-09T21:32:38.477Z,-2.13
2023-02-09T21:35:10.270Z,-2.23
2023-02-09T21:37:39.179Z,-2.37
2023-02-09T21:40:09.879Z,-2.49
2023-02-09T21:42:39.519Z,-2.23
2023-02-09T21:45:08.110Z,-2.22
2023-02-09T21:47:38.464Z,-2.21
2023-02-09T21:50:08.322Z,-2.02
2023-02-09T21:52:36.309Z,-2.07
2023-02-09T21:55:04.109Z,-2.20
2023-02-09T21:57:31.930Z,-2.35
2023-02-09T22:00:05.345Z,-2.41
2023-02-09T22:02:33.063Z,-2.59
2023-02-09T22:05:00.730Z,-2.71
2023-02-09T22:07:28.853Z,-2.66
2023-02-09T22:09:56.528Z,-2.72
2023-02-09T22:12:24.225Z,-2.82
2023-02-09T22:14:52.048Z,-2.96
2023-02-09T22:17:21.074Z,-2.94
2023-02-09T22:19:48.633Z,-2.95
2023-02-09T22:22:16.297Z,-2.95
2023-02-09T22:24:44.009Z,-3.09
2023-02-09T22:27:11.638Z,-3.15
2023-02-09T22:29:39.398Z,-3.00
2023-02-09T22:32:07.054Z,-2.86
2023-02-09T22:34:36.144Z,-2.83
2023-02-09T22:37:04.280Z,-2.85
2023-02-09T22:39:32.411Z,-2.97
2023-02-09T22:42:00.797Z,-3.28
2023-02-09T22:44:30.003Z,-3.34
2023-02-09T22:46:57.897Z,-3.23
2023-02-09T22:49:25.789Z,-3.18
2023-02-09T22:51:54.858Z,-3.31
2023-02-09T22:54:24.359Z,-3.40
2023-02-09T22:56:53.566Z,-3.48
2023-02-09T22:59:23.896Z,-3.55
2023-02-09T23:01:53.207Z,-3.47
2023-02-09T23:04:21.170Z,-3.45
2023-02-09T23:06:51.566Z,-3.25
2023-02-09T23:09:21.933Z,-3.31
2023-02-09T23:11:49.568Z,-3.22
2023-02-09T23:14:17.780Z,-3.14
2023-02-09T23:16:46.457Z,-3.33
2023-02-09T23:19:16.046Z,-3.52
2023-02-09T23:21:45.504Z,-3.55
2023-02-09T23:24:14.006Z,-3.54
2023-02-09T23:26:43.371Z,-3.62
2023-02-09T23:29:13.347Z,-3.73
2023-02-09T23:31:42.918Z,-3.47
2023-02-09T23:34:13.354Z,-3.42
2023-02-09T23:36:41.138Z,-3.69
2023-02-09T23:39:08.878Z,-3.88
2023-02-09T23:41:39.047Z,-4.04
2023-02-09T23:44:08.085Z,-4.04
2023-02-09T23:46:37.474Z,-3.77
2023-02-09T23:49:05.086Z,-3.63
2023-02-09T23:51:34.378Z,-3.45
2023-02-09T23:54:04.890Z,-3.37
2023-02-09T23:56:36.810Z,-3.40
2023-02-09T23:59:05.357Z,-3.29
